• Back
  •  
  • Position of Reservoir Gates
S.No.
No. of opened gates
Position of opening (In m)
Reporting Date
Reporting Time
Discharge in Cumecs
Discharge in Cusecs
Actual date and time of Gate opening
1
2
3
4
5
6
7
8
1 1 0.5 04/10/2021 12:00:00 PM 3.7 130.67 4.10.21 12pm
2 0 0 04/10/2021 8:00:00 PM 0 0
3 0 0 05/10/2021 8:00:00 AM 0 0 5.10.21 12pm
4 1 0.5 11/10/2021 8:00:00 AM 3.7 130.67 11.10.21 8am
5 1 0.05 11/10/2021 8:00:00 AM 3.7 130.67 11.10.21 8am
6 0 0 11/10/2021 12:00:00 PM 0 0 11.10.21 12pm
7 0 0 12/10/2021 12:12:00 PM 0 0 12.10.21 12pm
8 2 04/08/2016 7:40:27 AM 90
9 4 04/08/2016 9:00:27 AM 90
10 0 05/08/2016 6:54:31 AM 0
11 0 05/08/2016 1:36:34 PM 0
12 2 0.5 30/08/2020 4:00:00 PM 70.96 2505.95
13 2 1 30/08/2020 11:00:00 PM 138.4 4887.6
14 2 0.5 31/08/2020 12:00:00 AM 70.96 2505.95 Gates Opened on Dated 30.08.2020 at 4.00 PM
15 2 07/08/2016 1:29:39 PM 120
16 0 07/08/2016 6:49:39 PM 0
17 1 0.25 31/08/2020 4:00:00 PM 17.41 614.83
18 1 0.25 01/09/2020 12:00:00 AM 17.41 614.83 31/08/2020 4.00PM
19 1 0.25 02/09/2020 12:00:00 AM 17.41 614.83 01/09/2020 12.00PM
20 0 0 02/09/2020 1:00:00 PM 0 0 ALL GATES ARE CLOSED
21 1 0.1 09/09/2020 12:00:00 AM 7.18 253.56
22 1 0.1 11/09/2020 4:00:00 PM 7.18 253.56
23 1 0.1 12/09/2020 8:00:00 AM 7.18 253.56
24 1 0.1 12/09/2020 12:00:00 AM 7.18 253.56
25 1 0.1 12/09/2020 4:00:00 PM 7.18 253.56
26 1 0.1 12/09/2020 8:00:00 PM 7.18 253.56
27 1 0.05 13/09/2020 8:00:00 AM 3.48 122.9
28 1 0.05 13/09/2020 4:00:00 PM 3.48 122.9
29 1 0.05 13/09/2020 8:00:00 PM 3.48 122.9
30 1 0.05 15/09/2020 8:00:00 PM 3.48 122.9
31 1 0.05 16/09/2020 12:00:00 PM 3.48 122.9
32 1 0.05 17/09/2020 8:00:00 AM 3.48 122.9
33 2 08/08/2016 5:25:47 PM 120
34 2 09/08/2016 4:20:46 PM 120
35 0 09/08/2016 8:44:46 PM 0
36 1 0.05 18/09/2020 12:00:00 AM 3.48 122.9
37 1 0.5 18/09/2020 12:00:00 PM 35.47 1252.62
38 1 0.05 19/09/2020 8:00:00 AM 3.48 122.9
39 1 0.05 20/09/2020 12:00:00 AM 3.48 122.9
40 0 10/08/2016 11:34:22 PM 0
41 1 11/08/2016 8:41:12 PM 30
42 2 12/08/2016 5:05:12 AM 120
43 0 12/08/2016 6:09:57 PM 0
44 1 0.05 20/09/2020 8:00:00 AM 3.48 122.9
45 1 0.05 21/09/2020 8:00:00 AM 3.48 122.9
46 0 0 22/09/2020 7:00:00 AM 0 0 All gates closed at 7 AM
47 1 14/08/2016 6:25:29 AM 30
48 0 16/08/2016 2:20:46 PM 0
49 1 16/08/2016 7:59:18 AM 30
50 1 0.1 25/09/2020 12:00:00 AM 7.18 253.56
51 1 0.05 25/09/2020 8:00:00 PM 3.48 122.9 Opening position changed
52 1 0.05 26/09/2020 12:00:00 AM 3.45 121.84
53 1 0.05 27/09/2020 12:00:00 AM 3.45 121.84
54 0 0 28/09/2020 4:00:00 PM 0 0 ALL GATES ARE CLOSED
55 1 0.05 28/09/2020 12:00:00 AM 3.45 121.84
56 0 20/08/2016 12:26:45 AM 0
57 2 20/08/2016 11:14:14 AM 120
58 3 20/08/2016 12:21:16 PM 180
59 1 21/08/2016 5:35:58 PM 90
60 1 22/08/2016 9:17:53 AM 30
61 1 22/08/2016 3:51:04 PM 60
62 1 23/08/2016 7:04:23 AM 90
63 0 23/08/2016 8:54:41 PM 0
64 0 26/08/2016 8:19:19 AM 0
65 1 28/08/2016 8:04:10 PM 30
66 1 30/08/2016 9:08:22 PM 15
67 2 31/08/2016 8:33:15 PM 180
68 1 0.1 18/09/2021 12:00:00 PM 7.18 253.56
69 1 0.3 19/09/2021 8:00:00 AM 21.54 760.69
70 1 0.5 20/09/2021 8:00:00 AM 34.38 1214.13 20/09/2021
71 1 0.25 21/09/2021 8:00:00 AM 17.41 614.83 21/09/2021
72 1 0.25 22/09/2021 8:00:00 AM 17.41 614.83 22/09/2021
73 1 0.25 23/09/2021 8:00:00 AM 17.41 614.83 23/09/2021
74 1 0.25 24/09/2021 8:00:00 PM 17.41 614.83
75 1 0.05 25/09/2021 8:00:00 AM 3.48 122.9
76 1 0.25 26/09/2021 8:00:00 AM 17.41 614.83
77 1 0.25 27/09/2021 8:00:00 AM 17.41 614.83 27.9.21 8am
78 1 0.5 27/09/2021 8:00:00 PM 34.38 1214.13
79 1 0.5 28/09/2021 8:00:00 AM 34.38 1214.13 28/09/2021
80 1 0.5 28/09/2021 4:00:00 PM 34.38 1214.13
81 1 0.25 29/09/2021 8:00:00 AM 17.63 622.6 29.9.21 8am
82 1 0.05 30/09/2021 12:00:00 PM 3.48 122.9 30.9.21 12pm
83 1 0.15 01/10/2021 8:00:00 AM 10.66 376.46 1.10.21 8am
84 1 0.15 02/10/2021 8:00:00 AM 10.66 376.46
85 1 0.15 03/10/2021 8:00:00 AM 10.66 376.46
86 2 0.3 07/08/2019 10:45:00 PM 41.78 1475.46
87 2 0.3 08/08/2019 12:01:00 AM 41.78 1475.46
88 2 0.3 07/08/2019 10:45:00 AM 41.78 1475.46
89 2 0.5 08/08/2019 8:15:00 AM 62.42 2204.36
90 2 0.3 08/08/2019 5:00:00 AM 41.78 1475.46 each gate 0.30m 0pening since7/8/2019 at 10:30 pm passing discharge 41.78cumec
91 2 0.45 09/08/2019 12:01:00 AM 62.42 2204.36
92 2 0.5 09/08/2019 4:15:00 PM 62.42 2204.36
93 2 0.5 10/08/2019 12:18:09 AM 62.42 2204.36
94 2 0.5 10/08/2019 8:00:00 AM 62.42 2204.36
95 1 0.3 10/08/2019 12:01:00 PM 20.24 714.78
96 0 0 10/08/2019 6:00:00 PM 0 0 all gates are closed
97 2 0.3 13/08/2019 10:20:00 PM 42.21 1490.65
98 2 0.3 13/08/2019 8:20:00 PM 42.21 1490.65
99 2 0.3 14/08/2019 12:01:00 AM 42.21 1490.65
100 2 0.5 14/08/2019 1:15:00 PM 66.87 2361.51
101 1 0.3 14/08/2019 8:45:00 PM 20.02 707.01
102 1 0.3 15/08/2019 4:10:00 AM 20.02 707.01
103 2 0.5 15/08/2019 8:00:00 AM 68.32 2412.72
104 3 1 15/08/2019 3:00:00 PM 203 7169.3
105 0 0 16/08/2019 7:00:00 AM 0 0 all gates are closed
106 1 0.1 20/08/2019 10:00:00 AM 6.96 245.79
107 2 0.3 18/08/2019 8:45:00 PM 41.78 1475.46
108 2 0.3 19/08/2019 12:26:00 AM 41.78 1475.46
109 1 0.3 19/08/2019 3:00:00 AM 20.45 722.19
110 1 0.05 21/08/2019 9:00:00 AM 3.48 122.9
111 1 0.3 20/08/2019 12:01:00 AM 20.45 722.19
112 1 0.15 27/08/2019 12:01:00 AM 10.66 376.46
113 4 1.5 27/08/2019 10:00:00 AM 374.2 13214.87
114 1 0.7 27/08/2019 1:00:00 PM 46.13 1629.08
115 1 0.7 28/08/2019 12:01:00 AM 46.13 1629.08
116 1 0.05 28/08/2019 12:00:00 PM 3.4 120.07
117 1 0.05 30/08/2019 12:00:00 PM 3.8 134.2
118 1 0.05 29/08/2019 12:00:00 PM 3.48 122.9
119 1 0.05 31/08/2019 12:01:00 AM 3.8 134.2
120 1 0.05 31/08/2019 11:30:00 AM 3.48 122.9
121 0 0 31/08/2019 12:10:00 PM 0 0
122 1 0.3 05/09/2019 12:00:00 PM 21.1 745.15
123 1 0.3 06/09/2019 9:46:00 AM 21.1 745.15
124 1 0.3 07/09/2019 12:01:00 AM 21.1 745.15
125 1 0.3 09/09/2019 5:30:00 PM 21.32 752.92
126 1 0.3 10/09/2019 8:00:00 AM 21.23 749.74
127 2 0.5 10/09/2019 4:00:00 PM 70.5 2489.71
128 2 0.5 11/09/2019 6:00:00 AM 70.5 2489.71
129 1 0.1 11/09/2019 8:00:00 AM 7.18 253.56
130 3 1 13/09/2019 4:00:00 PM 205.6 7260.76
131 1 0.3 12/09/2019 8:00:00 PM 21.11 745.5
132 1 0.3 13/09/2019 3:30:00 AM 21.11 745.5
133 1 0.5 14/09/2019 12:01:00 AM 34.38 1214.13
134 4 1.5 14/09/2019 12:00:00 PM 333 11759.89
135 1 1 14/09/2019 3:00:00 PM 65.28 2305.36
136 1 0.1 15/09/2019 9:00:00 AM 6.96 245.79
137 2 1.5 16/09/2019 8:00:00 AM 197.1 6962
138 1 0.5 16/09/2019 9:00:00 PM 34.38 1214.13
139 1 0.5 17/09/2019 12:01:00 AM 34.38 1214.13
140 1 0.1 17/09/2019 7:00:00 AM 6.96 245.79
141 1 0.1 18/09/2019 8:00:00 PM 6.96 245.79
142 1 0.1 18/09/2019 12:01:00 AM 6.96 245.79
143 1 0.1 18/09/2019 10:00:00 AM 6.96 245.79
144 1 0.1 19/09/2019 8:00:00 AM 6.96 245.79
145 2 0.5 20/09/2019 12:01:00 AM 70.5 2489.71
146 2 0.5 19/09/2019 8:00:00 PM 70.5 2489.71
147 1 0.1 20/09/2019 8:00:00 AM 6.96 245.79
148 1 0.3 21/09/2019 9:13:00 AM 21.1 745.15
149 1 0.15 22/09/2019 10:00:00 AM 10.6 374.34
150 2 0.5 21/09/2019 10:40:00 PM 69.63 2458.98
151 2 0.5 22/09/2019 12:01:00 AM 69.63 2458.98 gate opening since 21/9/2021at10:40pm
152 1 0.15 23/09/2019 1:07:00 AM 10.66 376.46
153 1 0.15 28/09/2019 4:10:00 AM 10.66 376.46
154 1 0.5 23/09/2019 8:00:00 AM 35.25 1244.85
155 1 0.15 22/09/2019 7:00:00 PM 10.66 376.46
156 1 0.15 24/09/2019 8:00:00 AM 10.66 376.46
157 1 0.15 25/09/2019 8:00:00 AM 10.66 376.46
158 1 0.5 24/09/2019 12:01:00 AM 35.25 1244.85
159 1 0.15 26/09/2019 12:01:00 AM 10.66 376.46
160 1 0.15 27/09/2019 12:01:00 AM 10.66 376.46
161 1 0.15 27/09/2019 8:00:00 AM 10.66 376.46
162 1 0.5 28/09/2019 9:00:00 AM 34.82 1229.67
163 1 0.5 29/09/2019 2:50:00 AM 34.82 1229.67
164 1 0.15 29/09/2019 9:00:00 AM 10.66 376.46
165 1 0.15 29/09/2019 11:00:00 AM 10.66 376.46
166 1 0.15 02/10/2019 10:00:00 AM 10.66 376.46
167 1 0.15 30/09/2019 12:01:00 AM 10.66 376.46
168 1 0.3 01/10/2019 8:00:00 AM 21.11 745.5
169 1 0.15 02/10/2019 10:00:00 AM 10.66 376.46
170 1 0.15 02/10/2019 10:00:00 AM 10.66 376.46
171 0 0 06/10/2019 10:00:00 AM 0 0 All Gates are closed.
172 1 0.15 03/10/2019 8:00:00 AM 10.88 384.23
173 1 0.15 04/10/2019 12:01:00 AM 10.88 384.23
174 1 0.15 04/10/2019 12:00:00 PM 10.66 376.46
175 0 0 09/10/2019 8:10:00 AM 0 0 all gates are closed
176 1 0.05 12/10/2019 11:00:00 AM 3.7 130.67
177 1 0.15 09/10/2019 8:00:00 AM 10.66 376.46
178 1 0.15 08/10/2019 4:00:00 PM 10.66 376.46
179 1 0.15 09/10/2019 12:01:00 AM 10.66 376.46
180 1 0.15 08/10/2019 10:00:00 AM 61 2154.21
181 1 0.15 09/10/2019 9:00:00 AM 10.66 376.46
182 1 0.15 05/10/2019 12:01:00 AM 10.66 376.46
183 1 0.15 06/10/2019 12:01:00 AM 10.66 376.46
184 1 0.15 10/10/2019 6:00:00 AM 10.66 376.46
185 1 0.15 07/10/2019 12:01:00 AM 10.66 376.46
186 1 0.15 11/10/2019 8:00:00 AM 10.66 376.46
187 1 0.15 08/10/2019 11:32:00 AM 10.88 384.23
188 0 0 12/10/2019 4:00:00 PM 0 0 All Gates are closed
Powered by © Water Resources Department (MP). All Rights Reserved.